sensor_id;sensor_type;location;lat;lon;timestamp;P1;durP1;ratioP1;P2;durP2;ratioP2
40162;SDS011;25881;47.462;19.304;2022-08-01T00:00:01;4.72;;;3.08;;
40162;SDS011;25881;47.462;19.304;2022-08-01T00:02:28;5.10;;;2.60;;
40162;SDS011;25881;47.462;19.304;2022-08-01T00:04:56;4.13;;;2.80;;
40162;SDS011;25881;47.462;19.304;2022-08-01T00:07:22;3.50;;;2.60;;
40162;SDS011;25881;47.462;19.304;2022-08-01T00:09:47;3.87;;;2.83;;
40162;SDS011;25881;47.462;19.304;2022-08-01T00:12:12;5.17;;;2.43;;
40162;SDS011;25881;47.462;19.304;2022-08-01T00:14:37;4.35;;;2.83;;
40162;SDS011;25881;47.462;19.304;2022-08-01T00:17:03;5.05;;;3.40;;
40162;SDS011;25881;47.462;19.304;2022-08-01T00:19:28;4.00;;;2.80;;
40162;SDS011;25881;47.462;19.304;2022-08-01T00:21:53;4.33;;;2.77;;
40162;SDS011;25881;47.462;19.304;2022-08-01T00:24:18;4.57;;;2.80;;
40162;SDS011;25881;47.462;19.304;2022-08-01T00:26:44;4.43;;;2.80;;
40162;SDS011;25881;47.462;19.304;2022-08-01T00:29:09;5.60;;;2.97;;
40162;SDS011;25881;47.462;19.304;2022-08-01T00:31:34;3.97;;;2.93;;
40162;SDS011;25881;47.462;19.304;2022-08-01T00:33:59;5.20;;;2.80;;
40162;SDS011;25881;47.462;19.304;2022-08-01T00:36:25;4.57;;;2.80;;
40162;SDS011;25881;47.462;19.304;2022-08-01T00:38:50;3.17;;;2.53;;
40162;SDS011;25881;47.462;19.304;2022-08-01T00:41:15;3.50;;;2.57;;
40162;SDS011;25881;47.462;19.304;2022-08-01T00:43:40;4.03;;;2.70;;
40162;SDS011;25881;47.462;19.304;2022-08-01T00:46:06;2.40;;;2.20;;
40162;SDS011;25881;47.462;19.304;2022-08-01T00:48:31;3.33;;;2.58;;
40162;SDS011;25881;47.462;19.304;2022-08-01T00:50:56;3.83;;;2.90;;
40162;SDS011;25881;47.462;19.304;2022-08-01T00:53:21;4.93;;;2.70;;
40162;SDS011;25881;47.462;19.304;2022-08-01T00:55:47;4.07;;;2.60;;
40162;SDS011;25881;47.462;19.304;2022-08-01T00:58:13;4.47;;;2.97;;
40162;SDS011;25881;47.462;19.304;2022-08-01T01:00:38;4.55;;;2.78;;
40162;SDS011;25881;47.462;19.304;2022-08-01T01:03:04;5.20;;;3.00;;
40162;SDS011;25881;47.462;19.304;2022-08-01T01:05:29;3.70;;;3.00;;
40162;SDS011;25881;47.462;19.304;2022-08-01T01:08:02;3.60;;;2.90;;
40162;SDS011;25881;47.462;19.304;2022-08-01T01:10:33;4.28;;;2.95;;
40162;SDS011;25881;47.462;19.304;2022-08-01T01:13:04;6.88;;;2.90;;
40162;SDS011;25881;47.462;19.304;2022-08-01T01:15:50;3.38;;;2.70;;
40162;SDS011;25881;47.462;19.304;2022-08-01T01:18:17;3.65;;;2.65;;
40162;SDS011;25881;47.462;19.304;2022-08-01T01:20:46;4.75;;;2.70;;
40162;SDS011;25881;47.462;19.304;2022-08-01T01:31:13;4.10;;;2.83;;
40162;SDS011;25881;47.462;19.304;2022-08-01T01:33:40;5.03;;;2.92;;
40162;SDS011;25881;47.462;19.304;2022-08-01T01:36:08;5.93;;;2.70;;
40162;SDS011;25881;47.462;19.304;2022-08-01T01:38:34;2.97;;;2.50;;
40162;SDS011;25881;47.462;19.304;2022-08-01T01:41:01;5.88;;;2.55;;
40162;SDS011;25881;47.462;19.304;2022-08-01T01:43:27;3.75;;;3.00;;
40162;SDS011;25881;47.462;19.304;2022-08-01T01:45:53;3.50;;;2.78;;
40162;SDS011;25881;47.462;19.304;2022-08-01T01:48:19;4.47;;;3.08;;
40162;SDS011;25881;47.462;19.304;2022-08-01T01:50:45;4.00;;;3.00;;
40162;SDS011;25881;47.462;19.304;2022-08-01T01:53:12;3.85;;;2.80;;
40162;SDS011;25881;47.462;19.304;2022-08-01T01:55:38;4.95;;;2.75;;
40162;SDS011;25881;47.462;19.304;2022-08-01T01:58:04;2.85;;;2.53;;
40162;SDS011;25881;47.462;19.304;2022-08-01T02:00:31;3.25;;;2.83;;
40162;SDS011;25881;47.462;19.304;2022-08-01T02:02:56;5.63;;;3.15;;
40162;SDS011;25881;47.462;19.304;2022-08-01T02:05:22;5.57;;;3.10;;
40162;SDS011;25881;47.462;19.304;2022-08-01T02:07:47;5.05;;;3.05;;
40162;SDS011;25881;47.462;19.304;2022-08-01T02:10:14;3.20;;;2.90;;
40162;SDS011;25881;47.462;19.304;2022-08-01T02:12:41;6.78;;;3.03;;
40162;SDS011;25881;47.462;19.304;2022-08-01T02:15:08;4.85;;;2.90;;
40162;SDS011;25881;47.462;19.304;2022-08-01T02:17:36;4.57;;;3.08;;
40162;SDS011;25881;47.462;19.304;2022-08-01T02:20:02;8.02;;;3.05;;
40162;SDS011;25881;47.462;19.304;2022-08-01T02:22:32;4.30;;;2.92;;
40162;SDS011;25881;47.462;19.304;2022-08-01T02:27:42;4.18;;;2.97;;
40162;SDS011;25881;47.462;19.304;2022-08-01T02:30:09;4.38;;;3.25;;
40162;SDS011;25881;47.462;19.304;2022-08-01T02:32:37;6.35;;;3.20;;
40162;SDS011;25881;47.462;19.304;2022-08-01T02:35:03;5.07;;;3.95;;
40162;SDS011;25881;47.462;19.304;2022-08-01T02:37:33;6.35;;;3.05;;
40162;SDS011;25881;47.462;19.304;2022-08-01T02:39:58;4.20;;;3.15;;
40162;SDS011;25881;47.462;19.304;2022-08-01T02:42:24;4.80;;;3.30;;
40162;SDS011;25881;47.462;19.304;2022-08-01T02:44:51;5.22;;;3.05;;
40162;SDS011;25881;47.462;19.304;2022-08-01T02:47:17;7.68;;;3.80;;
40162;SDS011;25881;47.462;19.304;2022-08-01T02:49:45;5.18;;;3.22;;
40162;SDS011;25881;47.462;19.304;2022-08-01T02:52:12;7.75;;;3.15;;
40162;SDS011;25881;47.462;19.304;2022-08-01T02:54:37;6.47;;;3.50;;
40162;SDS011;25881;47.462;19.304;2022-08-01T02:57:04;5.93;;;3.10;;
40162;SDS011;25881;47.462;19.304;2022-08-01T02:59:31;4.55;;;3.20;;
40162;SDS011;25881;47.462;19.304;2022-08-01T03:01:57;12.30;;;3.45;;
40162;SDS011;25881;47.462;19.304;2022-08-01T03:04:23;6.45;;;3.30;;
40162;SDS011;25881;47.462;19.304;2022-08-01T03:06:49;8.93;;;3.85;;
40162;SDS011;25881;47.462;19.304;2022-08-01T03:09:15;6.03;;;3.20;;
40162;SDS011;25881;47.462;19.304;2022-08-01T03:11:41;5.30;;;3.38;;
40162;SDS011;25881;47.462;19.304;2022-08-01T03:14:07;3.45;;;2.80;;
40162;SDS011;25881;47.462;19.304;2022-08-01T03:16:33;8.30;;;3.20;;
40162;SDS011;25881;47.462;19.304;2022-08-01T03:19:00;7.65;;;3.25;;
40162;SDS011;25881;47.462;19.304;2022-08-01T03:21:26;5.20;;;3.30;;
40162;SDS011;25881;47.462;19.304;2022-08-01T03:23:52;6.80;;;3.63;;
40162;SDS011;25881;47.462;19.304;2022-08-01T03:26:22;5.30;;;3.30;;
40162;SDS011;25881;47.462;19.304;2022-08-01T03:28:48;9.55;;;3.42;;
40162;SDS011;25881;47.462;19.304;2022-08-01T03:31:13;6.97;;;3.38;;
40162;SDS011;25881;47.462;19.304;2022-08-01T03:33:39;8.02;;;3.30;;
40162;SDS011;25881;47.462;19.304;2022-08-01T03:36:04;8.48;;;3.42;;
40162;SDS011;25881;47.462;19.304;2022-08-01T03:38:32;8.63;;;3.80;;
40162;SDS011;25881;47.462;19.304;2022-08-01T03:41:02;6.50;;;3.70;;
40162;SDS011;25881;47.462;19.304;2022-08-01T03:43:36;9.30;;;4.18;;
40162;SDS011;25881;47.462;19.304;2022-08-01T03:46:04;4.20;;;3.63;;
40162;SDS011;25881;47.462;19.304;2022-08-01T03:48:32;6.75;;;3.60;;
40162;SDS011;25881;47.462;19.304;2022-08-01T03:51:01;6.10;;;3.35;;
40162;SDS011;25881;47.462;19.304;2022-08-01T03:53:29;3.92;;;3.53;;
40162;SDS011;25881;47.462;19.304;2022-08-01T03:55:55;4.87;;;3.23;;
40162;SDS011;25881;47.462;19.304;2022-08-01T03:58:20;5.15;;;3.47;;
40162;SDS011;25881;47.462;19.304;2022-08-01T04:00:46;7.72;;;3.45;;
40162;SDS011;25881;47.462;19.304;2022-08-01T04:03:12;5.53;;;3.42;;
40162;SDS011;25881;47.462;19.304;2022-08-01T04:05:40;5.50;;;3.60;;
40162;SDS011;25881;47.462;19.304;2022-08-01T04:08:05;5.13;;;3.65;;
40162;SDS011;25881;47.462;19.304;2022-08-01T04:10:30;4.85;;;3.13;;
40162;SDS011;25881;47.462;19.304;2022-08-01T04:12:56;4.78;;;3.22;;
40162;SDS011;25881;47.462;19.304;2022-08-01T04:15:21;5.30;;;3.43;;
40162;SDS011;25881;47.462;19.304;2022-08-01T04:17:46;5.20;;;3.47;;
40162;SDS011;25881;47.462;19.304;2022-08-01T04:20:12;4.13;;;2.97;;
40162;SDS011;25881;47.462;19.304;2022-08-01T04:22:37;7.00;;;3.55;;
40162;SDS011;25881;47.462;19.304;2022-08-01T04:25:04;7.15;;;3.10;;
40162;SDS011;25881;47.462;19.304;2022-08-01T04:27:37;5.13;;;3.40;;
40162;SDS011;25881;47.462;19.304;2022-08-01T04:30:04;4.60;;;3.25;;
40162;SDS011;25881;47.462;19.304;2022-08-01T04:32:31;4.30;;;2.97;;
40162;SDS011;25881;47.462;19.304;2022-08-01T04:34:58;3.15;;;2.83;;
40162;SDS011;25881;47.462;19.304;2022-08-01T04:37:24;6.88;;;3.20;;
40162;SDS011;25881;47.462;19.304;2022-08-01T04:39:52;5.78;;;3.83;;
40162;SDS011;25881;47.462;19.304;2022-08-01T04:42:17;4.13;;;3.08;;
40162;SDS011;25881;47.462;19.304;2022-08-01T04:44:43;5.07;;;2.90;;
40162;SDS011;25881;47.462;19.304;2022-08-01T04:47:09;3.70;;;2.92;;
40162;SDS011;25881;47.462;19.304;2022-08-01T04:49:34;4.80;;;3.17;;
40162;SDS011;25881;47.462;19.304;2022-08-01T04:52:00;6.70;;;3.67;;
40162;SDS011;25881;47.462;19.304;2022-08-01T04:54:33;4.32;;;3.08;;
40162;SDS011;25881;47.462;19.304;2022-08-01T04:57:01;5.32;;;3.10;;
40162;SDS011;25881;47.462;19.304;2022-08-01T04:59:27;9.35;;;3.38;;
40162;SDS011;25881;47.462;19.304;2022-08-01T05:02:09;9.27;;;3.20;;
40162;SDS011;25881;47.462;19.304;2022-08-01T05:04:35;7.00;;;3.47;;
40162;SDS011;25881;47.462;19.304;2022-08-01T05:07:00;4.82;;;2.80;;
40162;SDS011;25881;47.462;19.304;2022-08-01T05:09:26;8.73;;;3.05;;
40162;SDS011;25881;47.462;19.304;2022-08-01T05:11:52;6.50;;;3.10;;
40162;SDS011;25881;47.462;19.304;2022-08-01T05:14:17;5.15;;;3.17;;
40162;SDS011;25881;47.462;19.304;2022-08-01T05:16:42;4.13;;;2.90;;
40162;SDS011;25881;47.462;19.304;2022-08-01T05:19:08;5.47;;;2.88;;
40162;SDS011;25881;47.462;19.304;2022-08-01T05:21:33;8.55;;;2.90;;
40162;SDS011;25881;47.462;19.304;2022-08-01T05:23:59;4.05;;;3.00;;
40162;SDS011;25881;47.462;19.304;2022-08-01T05:26:24;4.57;;;2.87;;
40162;SDS011;25881;47.462;19.304;2022-08-01T05:28:49;4.97;;;3.10;;
40162;SDS011;25881;47.462;19.304;2022-08-01T05:31:14;4.33;;;3.03;;
40162;SDS011;25881;47.462;19.304;2022-08-01T05:33:39;6.47;;;2.80;;
40162;SDS011;25881;47.462;19.304;2022-08-01T05:36:05;5.93;;;3.20;;
40162;SDS011;25881;47.462;19.304;2022-08-01T05:38:30;3.80;;;2.80;;
40162;SDS011;25881;47.462;19.304;2022-08-01T05:40:55;4.80;;;2.90;;
40162;SDS011;25881;47.462;19.304;2022-08-01T05:43:20;4.80;;;3.65;;
40162;SDS011;25881;47.462;19.304;2022-08-01T05:45:46;8.50;;;2.93;;
40162;SDS011;25881;47.462;19.304;2022-08-01T05:48:11;6.10;;;2.75;;
40162;SDS011;25881;47.462;19.304;2022-08-01T05:50:36;4.43;;;2.73;;
40162;SDS011;25881;47.462;19.304;2022-08-01T05:53:01;3.00;;;2.60;;
40162;SDS011;25881;47.462;19.304;2022-08-01T05:55:27;7.63;;;2.63;;
40162;SDS011;25881;47.462;19.304;2022-08-01T05:57:52;5.93;;;2.90;;
40162;SDS011;25881;47.462;19.304;2022-08-01T06:00:17;6.77;;;3.10;;
40162;SDS011;25881;47.462;19.304;2022-08-01T06:02:42;4.87;;;2.83;;
40162;SDS011;25881;47.462;19.304;2022-08-01T06:05:08;8.15;;;2.80;;
40162;SDS011;25881;47.462;19.304;2022-08-01T06:07:34;3.90;;;2.70;;
40162;SDS011;25881;47.462;19.304;2022-08-01T06:09:59;5.77;;;2.83;;
40162;SDS011;25881;47.462;19.304;2022-08-01T06:12:24;4.97;;;3.10;;
40162;SDS011;25881;47.462;19.304;2022-08-01T06:14:49;4.03;;;2.90;;
40162;SDS011;25881;47.462;19.304;2022-08-01T06:17:15;5.63;;;2.83;;
40162;SDS011;25881;47.462;19.304;2022-08-01T06:19:40;4.63;;;2.63;;
40162;SDS011;25881;47.462;19.304;2022-08-01T06:22:05;5.97;;;2.60;;
40162;SDS011;25881;47.462;19.304;2022-08-01T06:24:30;4.90;;;2.30;;
40162;SDS011;25881;47.462;19.304;2022-08-01T06:26:55;5.87;;;2.57;;
40162;SDS011;25881;47.462;19.304;2022-08-01T06:29:21;3.33;;;2.43;;
40162;SDS011;25881;47.462;19.304;2022-08-01T06:31:46;9.37;;;2.60;;
40162;SDS011;25881;47.462;19.304;2022-08-01T06:34:11;4.83;;;2.20;;
40162;SDS011;25881;47.462;19.304;2022-08-01T06:36:36;3.60;;;2.43;;
40162;SDS011;25881;47.462;19.304;2022-08-01T06:39:02;3.93;;;2.00;;
40162;SDS011;25881;47.462;19.304;2022-08-01T06:41:27;6.00;;;3.17;;
40162;SDS011;25881;47.462;19.304;2022-08-01T06:43:52;6.17;;;2.80;;
40162;SDS011;25881;47.462;19.304;2022-08-01T06:46:17;5.07;;;2.30;;
40162;SDS011;25881;47.462;19.304;2022-08-01T06:48:43;6.30;;;2.30;;
40162;SDS011;25881;47.462;19.304;2022-08-01T06:51:08;10.53;;;2.67;;
40162;SDS011;25881;47.462;19.304;2022-08-01T06:53:34;5.82;;;2.42;;
40162;SDS011;25881;47.462;19.304;2022-08-01T06:55:59;4.53;;;2.42;;
40162;SDS011;25881;47.462;19.304;2022-08-01T06:58:24;4.75;;;2.67;;
40162;SDS011;25881;47.462;19.304;2022-08-01T07:00:50;6.27;;;2.10;;
40162;SDS011;25881;47.462;19.304;2022-08-01T07:03:15;4.53;;;2.50;;
40162;SDS011;25881;47.462;19.304;2022-08-01T07:05:40;8.87;;;2.63;;
40162;SDS011;25881;47.462;19.304;2022-08-01T07:08:06;3.90;;;2.47;;
40162;SDS011;25881;47.462;19.304;2022-08-01T07:10:31;7.50;;;2.85;;
40162;SDS011;25881;47.462;19.304;2022-08-01T07:12:56;5.83;;;2.50;;
40162;SDS011;25881;47.462;19.304;2022-08-01T07:15:21;2.97;;;2.20;;
40162;SDS011;25881;47.462;19.304;2022-08-01T07:17:51;4.35;;;2.03;;
40162;SDS011;25881;47.462;19.304;2022-08-01T07:20:16;7.18;;;2.45;;
40162;SDS011;25881;47.462;19.304;2022-08-01T07:22:42;5.73;;;2.20;;
40162;SDS011;25881;47.462;19.304;2022-08-01T07:25:07;12.43;;;2.55;;
40162;SDS011;25881;47.462;19.304;2022-08-01T07:27:33;4.97;;;2.50;;
40162;SDS011;25881;47.462;19.304;2022-08-01T07:29:58;3.22;;;2.33;;
40162;SDS011;25881;47.462;19.304;2022-08-01T07:32:24;7.03;;;2.45;;
40162;SDS011;25881;47.462;19.304;2022-08-01T07:34:49;7.37;;;2.33;;
40162;SDS011;25881;47.462;19.304;2022-08-01T07:37:14;5.67;;;2.20;;
40162;SDS011;25881;47.462;19.304;2022-08-01T07:39:39;3.43;;;2.33;;
40162;SDS011;25881;47.462;19.304;2022-08-01T07:42:04;2.40;;;2.13;;
40162;SDS011;25881;47.462;19.304;2022-08-01T07:44:30;3.20;;;2.30;;
40162;SDS011;25881;47.462;19.304;2022-08-01T07:46:55;6.10;;;2.63;;
40162;SDS011;25881;47.462;19.304;2022-08-01T07:49:20;4.00;;;2.50;;
40162;SDS011;25881;47.462;19.304;2022-08-01T07:51:46;4.30;;;2.28;;
40162;SDS011;25881;47.462;19.304;2022-08-01T07:54:12;8.48;;;2.35;;
40162;SDS011;25881;47.462;19.304;2022-08-01T07:56:37;4.87;;;2.10;;
40162;SDS011;25881;47.462;19.304;2022-08-01T07:59:02;4.23;;;2.03;;
40162;SDS011;25881;47.462;19.304;2022-08-01T08:01:27;3.47;;;2.30;;
40162;SDS011;25881;47.462;19.304;2022-08-01T08:03:53;4.35;;;2.60;;
40162;SDS011;25881;47.462;19.304;2022-08-01T08:06:18;8.77;;;2.75;;
40162;SDS011;25881;47.462;19.304;2022-08-01T08:08:43;9.83;;;3.10;;
40162;SDS011;25881;47.462;19.304;2022-08-01T08:11:08;10.73;;;2.47;;
40162;SDS011;25881;47.462;19.304;2022-08-01T08:13:34;8.07;;;2.47;;
40162;SDS011;25881;47.462;19.304;2022-08-01T08:15:59;5.93;;;2.07;;
40162;SDS011;25881;47.462;19.304;2022-08-01T08:18:25;5.20;;;2.05;;
40162;SDS011;25881;47.462;19.304;2022-08-01T08:20:50;3.85;;;1.95;;
40162;SDS011;25881;47.462;19.304;2022-08-01T08:23:15;5.27;;;2.30;;
40162;SDS011;25881;47.462;19.304;2022-08-01T08:25:59;4.45;;;2.55;;
40162;SDS011;25881;47.462;19.304;2022-08-01T08:28:24;4.70;;;2.23;;
40162;SDS011;25881;47.462;19.304;2022-08-01T08:30:49;4.17;;;2.30;;
40162;SDS011;25881;47.462;19.304;2022-08-01T08:33:15;3.25;;;2.33;;
40162;SDS011;25881;47.462;19.304;2022-08-01T08:35:40;4.30;;;2.10;;
40162;SDS011;25881;47.462;19.304;2022-08-01T08:38:06;5.00;;;2.58;;
40162;SDS011;25881;47.462;19.304;2022-08-01T08:40:31;5.47;;;2.30;;
40162;SDS011;25881;47.462;19.304;2022-08-01T08:42:59;3.17;;;2.15;;
40162;SDS011;25881;47.462;19.304;2022-08-01T08:45:25;8.15;;;2.67;;
40162;SDS011;25881;47.462;19.304;2022-08-01T08:47:51;6.15;;;2.08;;
40162;SDS011;25881;47.462;19.304;2022-08-01T08:50:17;3.75;;;2.10;;
40162;SDS011;25881;47.462;19.304;2022-08-01T08:52:42;4.55;;;2.60;;
40162;SDS011;25881;47.462;19.304;2022-08-01T08:55:08;4.72;;;2.20;;
40162;SDS011;25881;47.462;19.304;2022-08-01T08:57:33;2.83;;;2.00;;
40162;SDS011;25881;47.462;19.304;2022-08-01T08:59:59;3.63;;;2.28;;
40162;SDS011;25881;47.462;19.304;2022-08-01T09:02:24;5.43;;;2.35;;
40162;SDS011;25881;47.462;19.304;2022-08-01T09:04:50;6.13;;;2.13;;
40162;SDS011;25881;47.462;19.304;2022-08-01T09:07:15;4.03;;;2.20;;
40162;SDS011;25881;47.462;19.304;2022-08-01T09:09:40;5.83;;;2.10;;
40162;SDS011;25881;47.462;19.304;2022-08-01T09:12:06;5.80;;;2.20;;
40162;SDS011;25881;47.462;19.304;2022-08-01T09:14:31;4.50;;;2.15;;
40162;SDS011;25881;47.462;19.304;2022-08-01T09:17:04;4.03;;;2.30;;
40162;SDS011;25881;47.462;19.304;2022-08-01T09:19:39;4.88;;;2.40;;
40162;SDS011;25881;47.462;19.304;2022-08-01T09:22:05;3.97;;;2.15;;
40162;SDS011;25881;47.462;19.304;2022-08-01T09:24:32;9.63;;;2.33;;
40162;SDS011;25881;47.462;19.304;2022-08-01T09:26:58;5.93;;;2.40;;
40162;SDS011;25881;47.462;19.304;2022-08-01T09:29:25;7.15;;;2.50;;
40162;SDS011;25881;47.462;19.304;2022-08-01T09:31:51;4.13;;;2.20;;
40162;SDS011;25881;47.462;19.304;2022-08-01T09:34:23;3.13;;;2.13;;
40162;SDS011;25881;47.462;19.304;2022-08-01T09:36:55;4.22;;;2.10;;
40162;SDS011;25881;47.462;19.304;2022-08-01T09:39:25;3.65;;;2.30;;
40162;SDS011;25881;47.462;19.304;2022-08-01T09:41:50;4.28;;;2.45;;
40162;SDS011;25881;47.462;19.304;2022-08-01T09:44:16;4.07;;;1.80;;
40162;SDS011;25881;47.462;19.304;2022-08-01T09:46:53;4.90;;;2.05;;
40162;SDS011;25881;47.462;19.304;2022-08-01T09:49:28;4.47;;;2.10;;
40162;SDS011;25881;47.462;19.304;2022-08-01T09:51:54;2.90;;;2.20;;
40162;SDS011;25881;47.462;19.304;2022-08-01T09:54:29;5.50;;;1.97;;
40162;SDS011;25881;47.462;19.304;2022-08-01T09:56:55;3.10;;;2.13;;
40162;SDS011;25881;47.462;19.304;2022-08-01T09:59:35;6.93;;;2.17;;
40162;SDS011;25881;47.462;19.304;2022-08-01T10:02:02;3.47;;;2.17;;
40162;SDS011;25881;47.462;19.304;2022-08-01T10:04:27;3.92;;;2.30;;
40162;SDS011;25881;47.462;19.304;2022-08-01T10:06:53;5.23;;;1.80;;
40162;SDS011;25881;47.462;19.304;2022-08-01T10:09:37;4.38;;;2.30;;
40162;SDS011;25881;47.462;19.304;2022-08-01T10:12:03;2.80;;;1.75;;
40162;SDS011;25881;47.462;19.304;2022-08-01T10:14:29;7.35;;;2.42;;
40162;SDS011;25881;47.462;19.304;2022-08-01T10:16:55;5.25;;;1.80;;
40162;SDS011;25881;47.462;19.304;2022-08-01T10:19:21;3.20;;;2.00;;
40162;SDS011;25881;47.462;19.304;2022-08-01T10:21:47;3.67;;;1.77;;
40162;SDS011;25881;47.462;19.304;2022-08-01T10:24:15;4.95;;;3.03;;
40162;SDS011;25881;47.462;19.304;2022-08-01T10:26:41;4.53;;;2.15;;
40162;SDS011;25881;47.462;19.304;2022-08-01T10:29:07;4.03;;;2.13;;
40162;SDS011;25881;47.462;19.304;2022-08-01T10:31:33;4.20;;;1.88;;
40162;SDS011;25881;47.462;19.304;2022-08-01T10:33:59;7.20;;;2.80;;
40162;SDS011;25881;47.462;19.304;2022-08-01T10:36:25;3.63;;;2.15;;
40162;SDS011;25881;47.462;19.304;2022-08-01T10:38:50;3.47;;;1.88;;
40162;SDS011;25881;47.462;19.304;2022-08-01T10:41:16;4.20;;;2.00;;
40162;SDS011;25881;47.462;19.304;2022-08-01T10:43:43;6.70;;;2.80;;
40162;SDS011;25881;47.462;19.304;2022-08-01T10:46:08;4.00;;;2.33;;
40162;SDS011;25881;47.462;19.304;2022-08-01T10:53:57;3.38;;;2.08;;
40162;SDS011;25881;47.462;19.304;2022-08-01T10:56:26;6.53;;;2.83;;
40162;SDS011;25881;47.462;19.304;2022-08-01T10:59:03;3.88;;;2.05;;
40162;SDS011;25881;47.462;19.304;2022-08-01T11:01:29;3.67;;;2.03;;
40162;SDS011;25881;47.462;19.304;2022-08-01T11:06:20;3.50;;;2.27;;
40162;SDS011;25881;47.462;19.304;2022-08-01T11:08:51;5.53;;;2.13;;
40162;SDS011;25881;47.462;19.304;2022-08-01T11:11:16;5.65;;;2.10;;
40162;SDS011;25881;47.462;19.304;2022-08-01T11:14:00;4.13;;;2.57;;
40162;SDS011;25881;47.462;19.304;2022-08-01T11:16:29;3.53;;;2.30;;
40162;SDS011;25881;47.462;19.304;2022-08-01T11:18:54;8.18;;;2.25;;
40162;SDS011;25881;47.462;19.304;2022-08-01T11:21:19;3.70;;;2.17;;
40162;SDS011;25881;47.462;19.304;2022-08-01T11:23:49;3.00;;;2.13;;
40162;SDS011;25881;47.462;19.304;2022-08-01T11:26:17;3.80;;;1.92;;
40162;SDS011;25881;47.462;19.304;2022-08-01T11:28:42;2.53;;;2.13;;
40162;SDS011;25881;47.462;19.304;2022-08-01T11:38:35;7.72;;;2.10;;
40162;SDS011;25881;47.462;19.304;2022-08-01T11:43:54;2.60;;;1.95;;
40162;SDS011;25881;47.462;19.304;2022-08-01T11:46:19;2.80;;;2.20;;
40162;SDS011;25881;47.462;19.304;2022-08-01T11:48:44;4.00;;;2.28;;
40162;SDS011;25881;47.462;19.304;2022-08-01T11:51:15;2.85;;;2.35;;
40162;SDS011;25881;47.462;19.304;2022-08-01T11:53:47;6.55;;;2.63;;
40162;SDS011;25881;47.462;19.304;2022-08-01T11:56:12;6.85;;;2.80;;
40162;SDS011;25881;47.462;19.304;2022-08-01T11:58:37;4.47;;;2.35;;
40162;SDS011;25881;47.462;19.304;2022-08-01T12:01:02;4.53;;;2.20;;
40162;SDS011;25881;47.462;19.304;2022-08-01T12:03:29;3.20;;;2.37;;
40162;SDS011;25881;47.462;19.304;2022-08-01T12:05:55;8.52;;;2.80;;
40162;SDS011;25881;47.462;19.304;2022-08-01T12:08:27;3.47;;;2.08;;
40162;SDS011;25881;47.462;19.304;2022-08-01T12:10:52;8.27;;;2.20;;
40162;SDS011;25881;47.462;19.304;2022-08-01T12:13:18;4.90;;;2.20;;
40162;SDS011;25881;47.462;19.304;2022-08-01T12:15:43;3.45;;;2.35;;
40162;SDS011;25881;47.462;19.304;2022-08-01T12:18:10;3.97;;;2.28;;
40162;SDS011;25881;47.462;19.304;2022-08-01T12:20:36;8.90;;;2.90;;
40162;SDS011;25881;47.462;19.304;2022-08-01T12:23:03;4.90;;;2.40;;
40162;SDS011;25881;47.462;19.304;2022-08-01T12:25:30;4.85;;;2.40;;
40162;SDS011;25881;47.462;19.304;2022-08-01T12:27:59;4.78;;;2.13;;
40162;SDS011;25881;47.462;19.304;2022-08-01T12:30:24;4.10;;;2.13;;
40162;SDS011;25881;47.462;19.304;2022-08-01T12:32:50;2.67;;;2.28;;
40162;SDS011;25881;47.462;19.304;2022-08-01T12:35:22;10.65;;;2.42;;
40162;SDS011;25881;47.462;19.304;2022-08-01T12:38:21;3.03;;;2.03;;
40162;SDS011;25881;47.462;19.304;2022-08-01T12:40:43;5.72;;;2.42;;
40162;SDS011;25881;47.462;19.304;2022-08-01T12:43:09;3.47;;;2.22;;
40162;SDS011;25881;47.462;19.304;2022-08-01T12:45:36;3.15;;;2.50;;
40162;SDS011;25881;47.462;19.304;2022-08-01T12:48:02;4.35;;;2.03;;
40162;SDS011;25881;47.462;19.304;2022-08-01T12:50:32;4.10;;;2.38;;
40162;SDS011;25881;47.462;19.304;2022-08-01T12:52:57;5.60;;;2.53;;
40162;SDS011;25881;47.462;19.304;2022-08-01T12:55:26;5.22;;;2.30;;
40162;SDS011;25881;47.462;19.304;2022-08-01T12:58:05;4.47;;;2.35;;
40162;SDS011;25881;47.462;19.304;2022-08-01T13:00:31;2.72;;;2.50;;
40162;SDS011;25881;47.462;19.304;2022-08-01T13:03:06;3.67;;;2.33;;
40162;SDS011;25881;47.462;19.304;2022-08-01T13:08:10;5.63;;;2.50;;
40162;SDS011;25881;47.462;19.304;2022-08-01T13:10:36;6.30;;;2.30;;
40162;SDS011;25881;47.462;19.304;2022-08-01T13:13:01;4.00;;;2.80;;
40162;SDS011;25881;47.462;19.304;2022-08-01T13:15:28;3.83;;;2.30;;
40162;SDS011;25881;47.462;19.304;2022-08-01T13:17:57;4.50;;;2.20;;
40162;SDS011;25881;47.462;19.304;2022-08-01T13:20:32;5.22;;;2.42;;
40162;SDS011;25881;47.462;19.304;2022-08-01T13:23:10;7.35;;;2.60;;
40162;SDS011;25881;47.462;19.304;2022-08-01T13:25:46;3.55;;;2.08;;
40162;SDS011;25881;47.462;19.304;2022-08-01T13:28:15;5.47;;;2.30;;
40162;SDS011;25881;47.462;19.304;2022-08-01T13:30:50;5.47;;;2.30;;
40162;SDS011;25881;47.462;19.304;2022-08-01T13:33:15;5.22;;;2.38;;
40162;SDS011;25881;47.462;19.304;2022-08-01T13:35:40;7.50;;;2.07;;
40162;SDS011;25881;47.462;19.304;2022-08-01T13:38:06;6.35;;;1.90;;
40162;SDS011;25881;47.462;19.304;2022-08-01T13:40:32;4.07;;;2.10;;
40162;SDS011;25881;47.462;19.304;2022-08-01T13:42:57;2.67;;;2.13;;
40162;SDS011;25881;47.462;19.304;2022-08-01T13:45:22;3.87;;;2.20;;
40162;SDS011;25881;47.462;19.304;2022-08-01T13:47:48;5.30;;;2.30;;
40162;SDS011;25881;47.462;19.304;2022-08-01T13:50:13;4.27;;;2.23;;
40162;SDS011;25881;47.462;19.304;2022-08-01T13:52:38;3.28;;;2.10;;
40162;SDS011;25881;47.462;19.304;2022-08-01T13:55:04;4.70;;;2.27;;
40162;SDS011;25881;47.462;19.304;2022-08-01T13:57:29;6.35;;;2.58;;
40162;SDS011;25881;47.462;19.304;2022-08-01T13:59:54;4.73;;;2.20;;
40162;SDS011;25881;47.462;19.304;2022-08-01T14:02:20;8.63;;;2.80;;
40162;SDS011;25881;47.462;19.304;2022-08-01T14:04:45;3.20;;;2.20;;
40162;SDS011;25881;47.462;19.304;2022-08-01T14:07:11;3.50;;;1.85;;
40162;SDS011;25881;47.462;19.304;2022-08-01T14:09:37;2.40;;;1.85;;
40162;SDS011;25881;47.462;19.304;2022-08-01T14:12:02;2.30;;;1.73;;
40162;SDS011;25881;47.462;19.304;2022-08-01T14:14:28;5.07;;;2.33;;
40162;SDS011;25881;47.462;19.304;2022-08-01T14:16:53;3.63;;;2.40;;
40162;SDS011;25881;47.462;19.304;2022-08-01T14:19:19;4.57;;;2.20;;
40162;SDS011;25881;47.462;19.304;2022-08-01T14:21:44;2.85;;;1.83;;
40162;SDS011;25881;47.462;19.304;2022-08-01T14:24:09;3.28;;;2.10;;
40162;SDS011;25881;47.462;19.304;2022-08-01T14:26:35;3.67;;;1.83;;
40162;SDS011;25881;47.462;19.304;2022-08-01T14:29:00;4.90;;;2.47;;
40162;SDS011;25881;47.462;19.304;2022-08-01T14:31:25;1.77;;;1.67;;
40162;SDS011;25881;47.462;19.304;2022-08-01T14:33:50;2.97;;;1.83;;
40162;SDS011;25881;47.462;19.304;2022-08-01T14:36:16;1.93;;;1.70;;
40162;SDS011;25881;47.462;19.304;2022-08-01T14:38:41;2.63;;;2.00;;
40162;SDS011;25881;47.462;19.304;2022-08-01T14:41:06;2.05;;;1.80;;
40162;SDS011;25881;47.462;19.304;2022-08-01T14:43:31;3.83;;;1.77;;
40162;SDS011;25881;47.462;19.304;2022-08-01T14:45:57;4.95;;;2.00;;
40162;SDS011;25881;47.462;19.304;2022-08-01T14:48:22;4.72;;;1.92;;
40162;SDS011;25881;47.462;19.304;2022-08-01T14:50:48;3.70;;;1.97;;
40162;SDS011;25881;47.462;19.304;2022-08-01T14:53:13;3.53;;;1.92;;
40162;SDS011;25881;47.462;19.304;2022-08-01T14:55:38;2.77;;;1.90;;
40162;SDS011;25881;47.462;19.304;2022-08-01T14:58:03;2.53;;;1.77;;
40162;SDS011;25881;47.462;19.304;2022-08-01T15:00:29;8.83;;;2.27;;